sensor_id;sensor_type;location;lat;lon;timestamp;P1;durP1;ratioP1;P2;durP2;ratioP2
6392;SDS011;3229;42.674;23.282;2023-05-10T00:01:01;3.10;;;2.90;;
6392;SDS011;3229;42.674;23.282;2023-05-10T00:03:28;3.97;;;2.73;;
6392;SDS011;3229;42.674;23.282;2023-05-10T00:05:55;3.57;;;3.27;;
6392;SDS011;3229;42.674;23.282;2023-05-10T00:08:22;3.30;;;2.80;;
6392;SDS011;3229;42.674;23.282;2023-05-10T00:10:49;3.13;;;2.93;;
6392;SDS011;3229;42.674;23.282;2023-05-10T00:13:15;3.57;;;3.20;;
6392;SDS011;3229;42.674;23.282;2023-05-10T00:15:42;3.30;;;3.10;;
6392;SDS011;3229;42.674;23.282;2023-05-10T00:18:10;4.10;;;3.20;;
6392;SDS011;3229;42.674;23.282;2023-05-10T00:20:37;3.27;;;3.07;;
6392;SDS011;3229;42.674;23.282;2023-05-10T00:23:04;3.80;;;3.50;;
6392;SDS011;3229;42.674;23.282;2023-05-10T00:25:31;3.23;;;2.83;;
6392;SDS011;3229;42.674;23.282;2023-05-10T00:27:57;3.47;;;3.00;;
6392;SDS011;3229;42.674;23.282;2023-05-10T00:30:26;3.40;;;3.10;;
6392;SDS011;3229;42.674;23.282;2023-05-10T00:32:53;3.03;;;2.83;;
6392;SDS011;3229;42.674;23.282;2023-05-10T00:35:21;3.07;;;2.77;;
6392;SDS011;3229;42.674;23.282;2023-05-10T00:37:48;3.40;;;3.13;;
6392;SDS011;3229;42.674;23.282;2023-05-10T00:40:15;2.80;;;2.60;;
6392;SDS011;3229;42.674;23.282;2023-05-10T00:42:42;3.23;;;3.03;;
6392;SDS011;3229;42.674;23.282;2023-05-10T00:45:08;3.10;;;2.90;;
6392;SDS011;3229;42.674;23.282;2023-05-10T00:47:36;3.40;;;3.03;;
6392;SDS011;3229;42.674;23.282;2023-05-10T00:50:04;3.57;;;3.23;;
6392;SDS011;3229;42.674;23.282;2023-05-10T00:52:33;3.10;;;2.90;;
6392;SDS011;3229;42.674;23.282;2023-05-10T00:55:00;3.13;;;2.93;;
6392;SDS011;3229;42.674;23.282;2023-05-10T00:57:28;3.80;;;3.43;;
6392;SDS011;3229;42.674;23.282;2023-05-10T00:59:55;3.77;;;3.47;;
6392;SDS011;3229;42.674;23.282;2023-05-10T01:02:23;3.50;;;3.20;;
6392;SDS011;3229;42.674;23.282;2023-05-10T01:04:50;3.23;;;2.93;;
6392;SDS011;3229;42.674;23.282;2023-05-10T01:07:18;3.70;;;3.40;;
6392;SDS011;3229;42.674;23.282;2023-05-10T01:09:46;3.73;;;3.40;;
6392;SDS011;3229;42.674;23.282;2023-05-10T01:12:13;3.60;;;3.30;;
6392;SDS011;3229;42.674;23.282;2023-05-10T01:14:40;3.87;;;3.43;;
6392;SDS011;3229;42.674;23.282;2023-05-10T01:17:07;4.00;;;3.70;;
6392;SDS011;3229;42.674;23.282;2023-05-10T01:19:36;4.13;;;3.77;;
6392;SDS011;3229;42.674;23.282;2023-05-10T01:22:05;3.67;;;3.37;;
6392;SDS011;3229;42.674;23.282;2023-05-10T01:27:55;3.77;;;3.23;;
6392;SDS011;3229;42.674;23.282;2023-05-10T01:30:47;3.90;;;3.60;;
6392;SDS011;3229;42.674;23.282;2023-05-10T01:33:30;4.33;;;3.93;;
6392;SDS011;3229;42.674;23.282;2023-05-10T01:36:06;3.73;;;3.47;;
6392;SDS011;3229;42.674;23.282;2023-05-10T01:38:40;4.30;;;3.90;;
6392;SDS011;3229;42.674;23.282;2023-05-10T01:41:13;4.10;;;3.80;;
6392;SDS011;3229;42.674;23.282;2023-05-10T01:43:46;4.57;;;3.17;;
6392;SDS011;3229;42.674;23.282;2023-05-10T01:46:20;3.93;;;3.60;;
6392;SDS011;3229;42.674;23.282;2023-05-10T01:48:55;3.90;;;3.60;;
6392;SDS011;3229;42.674;23.282;2023-05-10T01:51:24;3.83;;;3.33;;
6392;SDS011;3229;42.674;23.282;2023-05-10T01:53:57;4.17;;;3.87;;
6392;SDS011;3229;42.674;23.282;2023-05-10T01:56:26;3.67;;;3.37;;
6392;SDS011;3229;42.674;23.282;2023-05-10T01:58:56;3.97;;;3.20;;
6392;SDS011;3229;42.674;23.282;2023-05-10T02:01:25;3.43;;;3.13;;
6392;SDS011;3229;42.674;23.282;2023-05-10T02:03:55;2.90;;;2.70;;
6392;SDS011;3229;42.674;23.282;2023-05-10T02:06:24;3.43;;;3.17;;
6392;SDS011;3229;42.674;23.282;2023-05-10T02:08:52;3.30;;;3.03;;
6392;SDS011;3229;42.674;23.282;2023-05-10T02:11:20;3.50;;;3.20;;
6392;SDS011;3229;42.674;23.282;2023-05-10T02:13:48;3.00;;;2.80;;
6392;SDS011;3229;42.674;23.282;2023-05-10T02:16:16;2.93;;;2.73;;
6392;SDS011;3229;42.674;23.282;2023-05-10T02:18:47;3.00;;;2.80;;
6392;SDS011;3229;42.674;23.282;2023-05-10T02:21:16;3.10;;;2.90;;
6392;SDS011;3229;42.674;23.282;2023-05-10T02:23:44;3.20;;;3.00;;
6392;SDS011;3229;42.674;23.282;2023-05-10T02:26:12;2.80;;;2.60;;
6392;SDS011;3229;42.674;23.282;2023-05-10T02:28:41;2.67;;;2.47;;
6392;SDS011;3229;42.674;23.282;2023-05-10T02:31:09;3.33;;;2.60;;
6392;SDS011;3229;42.674;23.282;2023-05-10T02:33:36;3.13;;;2.93;;
6392;SDS011;3229;42.674;23.282;2023-05-10T02:36:04;2.90;;;2.70;;
6392;SDS011;3229;42.674;23.282;2023-05-10T02:38:35;3.23;;;2.93;;
6392;SDS011;3229;42.674;23.282;2023-05-10T02:41:03;6.00;;;3.13;;
6392;SDS011;3229;42.674;23.282;2023-05-10T02:43:32;3.27;;;2.90;;
6392;SDS011;3229;42.674;23.282;2023-05-10T02:46:00;3.50;;;3.30;;
6392;SDS011;3229;42.674;23.282;2023-05-10T02:48:27;3.77;;;3.47;;
6392;SDS011;3229;42.674;23.282;2023-05-10T02:50:55;3.63;;;3.33;;
6392;SDS011;3229;42.674;23.282;2023-05-10T02:53:28;4.10;;;3.50;;
6392;SDS011;3229;42.674;23.282;2023-05-10T02:56:00;5.07;;;2.93;;
6392;SDS011;3229;42.674;23.282;2023-05-10T02:58:32;4.67;;;3.43;;
6392;SDS011;3229;42.674;23.282;2023-05-10T03:00:59;5.07;;;3.30;;
6392;SDS011;3229;42.674;23.282;2023-05-10T03:03:26;4.53;;;3.57;;
6392;SDS011;3229;42.674;23.282;2023-05-10T03:05:53;5.67;;;3.30;;
6392;SDS011;3229;42.674;23.282;2023-05-10T03:08:21;4.77;;;3.33;;
6392;SDS011;3229;42.674;23.282;2023-05-10T03:10:52;6.43;;;4.20;;
6392;SDS011;3229;42.674;23.282;2023-05-10T03:13:31;3.60;;;3.10;;
6392;SDS011;3229;42.674;23.282;2023-05-10T03:16:05;3.77;;;3.47;;
6392;SDS011;3229;42.674;23.282;2023-05-10T03:18:38;4.07;;;3.40;;
6392;SDS011;3229;42.674;23.282;2023-05-10T03:21:10;4.47;;;4.07;;
6392;SDS011;3229;42.674;23.282;2023-05-10T03:23:40;4.87;;;3.47;;
6392;SDS011;3229;42.674;23.282;2023-05-10T03:26:09;6.33;;;3.60;;
6392;SDS011;3229;42.674;23.282;2023-05-10T03:28:42;3.77;;;3.47;;
6392;SDS011;3229;42.674;23.282;2023-05-10T03:31:09;3.87;;;3.57;;
6392;SDS011;3229;42.674;23.282;2023-05-10T03:33:45;4.13;;;3.47;;
6392;SDS011;3229;42.674;23.282;2023-05-10T03:36:12;3.40;;;3.00;;
6392;SDS011;3229;42.674;23.282;2023-05-10T03:38:39;4.00;;;3.70;;
6392;SDS011;3229;42.674;23.282;2023-05-10T03:41:06;4.23;;;3.53;;
6392;SDS011;3229;42.674;23.282;2023-05-10T03:43:33;3.67;;;3.37;;
6392;SDS011;3229;42.674;23.282;2023-05-10T03:46:02;3.50;;;3.20;;
6392;SDS011;3229;42.674;23.282;2023-05-10T03:48:29;5.37;;;3.07;;
6392;SDS011;3229;42.674;23.282;2023-05-10T03:50:56;4.00;;;3.50;;
6392;SDS011;3229;42.674;23.282;2023-05-10T03:53:23;4.03;;;3.30;;
6392;SDS011;3229;42.674;23.282;2023-05-10T03:55:50;3.70;;;3.40;;
6392;SDS011;3229;42.674;23.282;2023-05-10T03:58:17;4.30;;;3.50;;
6392;SDS011;3229;42.674;23.282;2023-05-10T04:00:44;6.40;;;3.90;;
6392;SDS011;3229;42.674;23.282;2023-05-10T04:03:12;3.80;;;3.50;;
6392;SDS011;3229;42.674;23.282;2023-05-10T04:05:39;3.70;;;3.37;;
6392;SDS011;3229;42.674;23.282;2023-05-10T04:08:06;4.27;;;3.87;;
6392;SDS011;3229;42.674;23.282;2023-05-10T04:10:33;3.93;;;3.40;;
6392;SDS011;3229;42.674;23.282;2023-05-10T04:13:00;3.33;;;2.90;;
6392;SDS011;3229;42.674;23.282;2023-05-10T04:15:27;5.77;;;3.43;;
6392;SDS011;3229;42.674;23.282;2023-05-10T04:17:54;5.10;;;3.27;;
6392;SDS011;3229;42.674;23.282;2023-05-10T04:20:22;3.60;;;3.30;;
6392;SDS011;3229;42.674;23.282;2023-05-10T04:22:48;3.90;;;3.60;;
6392;SDS011;3229;42.674;23.282;2023-05-10T04:25:15;4.33;;;3.67;;
6392;SDS011;3229;42.674;23.282;2023-05-10T04:27:42;3.83;;;3.47;;
6392;SDS011;3229;42.674;23.282;2023-05-10T04:30:09;3.73;;;3.43;;
6392;SDS011;3229;42.674;23.282;2023-05-10T04:32:36;3.87;;;3.47;;
6392;SDS011;3229;42.674;23.282;2023-05-10T04:35:03;4.07;;;3.60;;
6392;SDS011;3229;42.674;23.282;2023-05-10T04:37:32;3.87;;;3.20;;
6392;SDS011;3229;42.674;23.282;2023-05-10T04:39:59;4.37;;;3.63;;
6392;SDS011;3229;42.674;23.282;2023-05-10T04:42:26;5.07;;;3.20;;
6392;SDS011;3229;42.674;23.282;2023-05-10T04:44:52;5.87;;;3.40;;
6392;SDS011;3229;42.674;23.282;2023-05-10T04:47:19;4.13;;;3.73;;
6392;SDS011;3229;42.674;23.282;2023-05-10T04:49:46;3.67;;;3.37;;
6392;SDS011;3229;42.674;23.282;2023-05-10T04:52:13;3.93;;;3.30;;
6392;SDS011;3229;42.674;23.282;2023-05-10T04:54:43;4.40;;;3.70;;
6392;SDS011;3229;42.674;23.282;2023-05-10T04:57:10;3.37;;;3.17;;
6392;SDS011;3229;42.674;23.282;2023-05-10T04:59:37;4.07;;;3.03;;
6392;SDS011;3229;42.674;23.282;2023-05-10T05:02:04;3.40;;;3.17;;
6392;SDS011;3229;42.674;23.282;2023-05-10T05:04:31;3.70;;;3.40;;
6392;SDS011;3229;42.674;23.282;2023-05-10T05:06:58;4.03;;;3.67;;
6392;SDS011;3229;42.674;23.282;2023-05-10T05:09:25;6.10;;;2.93;;
6392;SDS011;3229;42.674;23.282;2023-05-10T05:11:53;4.80;;;3.87;;
6392;SDS011;3229;42.674;23.282;2023-05-10T05:14:20;4.57;;;3.80;;
6392;SDS011;3229;42.674;23.282;2023-05-10T05:16:47;7.83;;;4.23;;
6392;SDS011;3229;42.674;23.282;2023-05-10T05:19:14;7.87;;;4.23;;
6392;SDS011;3229;42.674;23.282;2023-05-10T05:21:41;6.37;;;4.40;;
6392;SDS011;3229;42.674;23.282;2023-05-10T05:24:08;8.37;;;3.83;;
6392;SDS011;3229;42.674;23.282;2023-05-10T05:26:36;6.63;;;4.13;;
6392;SDS011;3229;42.674;23.282;2023-05-10T05:29:04;6.37;;;4.60;;
6392;SDS011;3229;42.674;23.282;2023-05-10T05:31:31;4.37;;;3.97;;
6392;SDS011;3229;42.674;23.282;2023-05-10T05:33:57;4.70;;;4.30;;
6392;SDS011;3229;42.674;23.282;2023-05-10T05:36:24;4.93;;;4.53;;
6392;SDS011;3229;42.674;23.282;2023-05-10T05:38:51;6.13;;;4.10;;
6392;SDS011;3229;42.674;23.282;2023-05-10T05:41:18;5.23;;;3.97;;
6392;SDS011;3229;42.674;23.282;2023-05-10T05:43:45;5.27;;;4.33;;
6392;SDS011;3229;42.674;23.282;2023-05-10T05:46:13;4.87;;;4.03;;
6392;SDS011;3229;42.674;23.282;2023-05-10T05:48:39;6.33;;;4.10;;
6392;SDS011;3229;42.674;23.282;2023-05-10T05:51:06;5.53;;;3.87;;
6392;SDS011;3229;42.674;23.282;2023-05-10T05:53:33;5.13;;;4.37;;
6392;SDS011;3229;42.674;23.282;2023-05-10T05:56:00;6.27;;;4.30;;
6392;SDS011;3229;42.674;23.282;2023-05-10T05:58:26;4.77;;;4.37;;
6392;SDS011;3229;42.674;23.282;2023-05-10T06:00:53;4.47;;;4.07;;
6392;SDS011;3229;42.674;23.282;2023-05-10T06:03:21;9.40;;;4.80;;
6392;SDS011;3229;42.674;23.282;2023-05-10T06:05:48;5.13;;;4.20;;
6392;SDS011;3229;42.674;23.282;2023-05-10T06:08:15;6.70;;;4.67;;
6392;SDS011;3229;42.674;23.282;2023-05-10T06:10:42;4.47;;;3.97;;
6392;SDS011;3229;42.674;23.282;2023-05-10T06:13:09;5.13;;;4.63;;
6392;SDS011;3229;42.674;23.282;2023-05-10T06:15:36;5.23;;;4.80;;
6392;SDS011;3229;42.674;23.282;2023-05-10T06:18:03;5.23;;;4.73;;
6392;SDS011;3229;42.674;23.282;2023-05-10T06:20:32;5.27;;;4.77;;
6392;SDS011;3229;42.674;23.282;2023-05-10T06:22:59;6.83;;;4.97;;
6392;SDS011;3229;42.674;23.282;2023-05-10T06:25:25;5.37;;;4.87;;
6392;SDS011;3229;42.674;23.282;2023-05-10T06:27:52;6.53;;;5.47;;
6392;SDS011;3229;42.674;23.282;2023-05-10T06:30:22;5.90;;;4.93;;
6392;SDS011;3229;42.674;23.282;2023-05-10T06:32:52;6.10;;;5.27;;
6392;SDS011;3229;42.674;23.282;2023-05-10T06:35:19;5.63;;;5.00;;
6392;SDS011;3229;42.674;23.282;2023-05-10T06:37:47;5.10;;;4.67;;
6392;SDS011;3229;42.674;23.282;2023-05-10T06:40:14;7.37;;;4.93;;
6392;SDS011;3229;42.674;23.282;2023-05-10T06:42:41;7.37;;;5.37;;
6392;SDS011;3229;42.674;23.282;2023-05-10T06:45:10;6.10;;;5.50;;
6392;SDS011;3229;42.674;23.282;2023-05-10T06:47:37;6.20;;;5.60;;
6392;SDS011;3229;42.674;23.282;2023-05-10T06:50:04;8.03;;;5.50;;
6392;SDS011;3229;42.674;23.282;2023-05-10T06:52:32;6.33;;;5.70;;
6392;SDS011;3229;42.674;23.282;2023-05-10T06:55:00;8.63;;;5.53;;
6392;SDS011;3229;42.674;23.282;2023-05-10T06:57:28;5.20;;;4.67;;
6392;SDS011;3229;42.674;23.282;2023-05-10T06:59:54;6.53;;;5.63;;
6392;SDS011;3229;42.674;23.282;2023-05-10T07:02:22;5.63;;;5.10;;
6392;SDS011;3229;42.674;23.282;2023-05-10T07:04:48;7.70;;;5.87;;
6392;SDS011;3229;42.674;23.282;2023-05-10T07:07:16;6.93;;;5.93;;
6392;SDS011;3229;42.674;23.282;2023-05-10T07:09:43;6.03;;;5.53;;
6392;SDS011;3229;42.674;23.282;2023-05-10T07:12:12;6.43;;;5.53;;
6392;SDS011;3229;42.674;23.282;2023-05-10T07:14:39;6.73;;;5.20;;
6392;SDS011;3229;42.674;23.282;2023-05-10T07:17:05;8.70;;;5.70;;
6392;SDS011;3229;42.674;23.282;2023-05-10T07:19:32;5.90;;;5.37;;
6392;SDS011;3229;42.674;23.282;2023-05-10T07:21:59;6.03;;;5.43;;
6392;SDS011;3229;42.674;23.282;2023-05-10T07:24:26;6.40;;;5.80;;
6392;SDS011;3229;42.674;23.282;2023-05-10T07:26:53;8.43;;;6.60;;
6392;SDS011;3229;42.674;23.282;2023-05-10T07:29:21;7.77;;;6.07;;
6392;SDS011;3229;42.674;23.282;2023-05-10T07:31:47;7.43;;;5.87;;
6392;SDS011;3229;42.674;23.282;2023-05-10T07:34:14;8.70;;;5.57;;
6392;SDS011;3229;42.674;23.282;2023-05-10T07:36:41;11.10;;;5.77;;
6392;SDS011;3229;42.674;23.282;2023-05-10T07:39:08;8.57;;;5.83;;
6392;SDS011;3229;42.674;23.282;2023-05-10T07:41:35;7.03;;;6.33;;
6392;SDS011;3229;42.674;23.282;2023-05-10T07:44:02;7.57;;;6.37;;
6392;SDS011;3229;42.674;23.282;2023-05-10T07:46:31;8.17;;;6.20;;
6392;SDS011;3229;42.674;23.282;2023-05-10T07:48:58;6.50;;;5.90;;
6392;SDS011;3229;42.674;23.282;2023-05-10T07:51:24;6.77;;;6.07;;
6392;SDS011;3229;42.674;23.282;2023-05-10T07:53:53;8.23;;;5.77;;
6392;SDS011;3229;42.674;23.282;2023-05-10T07:56:20;7.23;;;6.53;;
6392;SDS011;3229;42.674;23.282;2023-05-10T07:58:49;7.43;;;6.67;;
6392;SDS011;3229;42.674;23.282;2023-05-10T08:01:17;7.33;;;6.07;;
6392;SDS011;3229;42.674;23.282;2023-05-10T08:03:45;6.70;;;5.90;;
6392;SDS011;3229;42.674;23.282;2023-05-10T08:06:12;9.30;;;6.63;;
6392;SDS011;3229;42.674;23.282;2023-05-10T08:08:40;10.07;;;6.70;;
6392;SDS011;3229;42.674;23.282;2023-05-10T08:11:07;7.57;;;6.77;;
6392;SDS011;3229;42.674;23.282;2023-05-10T08:13:34;7.67;;;6.60;;
6392;SDS011;3229;42.674;23.282;2023-05-10T08:16:01;7.27;;;6.63;;
6392;SDS011;3229;42.674;23.282;2023-05-10T08:18:28;7.67;;;6.87;;
6392;SDS011;3229;42.674;23.282;2023-05-10T08:20:56;7.97;;;6.23;;
6392;SDS011;3229;42.674;23.282;2023-05-10T08:23:23;7.57;;;6.80;;
6392;SDS011;3229;42.674;23.282;2023-05-10T08:25:50;8.50;;;6.63;;
6392;SDS011;3229;42.674;23.282;2023-05-10T08:28:16;7.37;;;6.67;;
6392;SDS011;3229;42.674;23.282;2023-05-10T08:30:43;7.40;;;6.70;;
6392;SDS011;3229;42.674;23.282;2023-05-10T08:33:12;7.70;;;6.43;;
6392;SDS011;3229;42.674;23.282;2023-05-10T08:35:39;6.57;;;5.93;;
6392;SDS011;3229;42.674;23.282;2023-05-10T08:38:07;7.17;;;6.47;;
6392;SDS011;3229;42.674;23.282;2023-05-10T08:40:34;9.47;;;6.10;;
6392;SDS011;3229;42.674;23.282;2023-05-10T08:43:04;8.47;;;6.30;;
6392;SDS011;3229;42.674;23.282;2023-05-10T08:45:32;8.57;;;6.23;;
6392;SDS011;3229;42.674;23.282;2023-05-10T08:48:03;6.80;;;5.97;;
6392;SDS011;3229;42.674;23.282;2023-05-10T08:50:32;7.17;;;6.47;;
6392;SDS011;3229;42.674;23.282;2023-05-10T08:53:02;6.60;;;6.00;;
6392;SDS011;3229;42.674;23.282;2023-05-10T08:55:33;7.00;;;6.30;;
6392;SDS011;3229;42.674;23.282;2023-05-10T08:58:01;6.53;;;5.93;;
6392;SDS011;3229;42.674;23.282;2023-05-10T09:00:28;9.10;;;6.37;;
6392;SDS011;3229;42.674;23.282;2023-05-10T09:02:56;6.90;;;6.20;;
6392;SDS011;3229;42.674;23.282;2023-05-10T09:05:23;6.63;;;6.03;;
6392;SDS011;3229;42.674;23.282;2023-05-10T09:07:50;7.50;;;6.20;;
6392;SDS011;3229;42.674;23.282;2023-05-10T09:10:18;6.73;;;6.13;;
6392;SDS011;3229;42.674;23.282;2023-05-10T09:12:46;6.23;;;5.53;;
6392;SDS011;3229;42.674;23.282;2023-05-10T09:15:15;7.60;;;6.07;;
6392;SDS011;3229;42.674;23.282;2023-05-10T09:17:44;8.87;;;6.07;;
6392;SDS011;3229;42.674;23.282;2023-05-10T09:20:12;6.30;;;5.63;;
6392;SDS011;3229;42.674;23.282;2023-05-10T09:22:39;5.80;;;5.30;;
6392;SDS011;3229;42.674;23.282;2023-05-10T09:25:06;8.07;;;5.97;;
6392;SDS011;3229;42.674;23.282;2023-05-10T09:27:34;6.63;;;5.67;;
6392;SDS011;3229;42.674;23.282;2023-05-10T09:30:03;6.57;;;5.97;;
6392;SDS011;3229;42.674;23.282;2023-05-10T09:32:38;6.33;;;5.53;;
6392;SDS011;3229;42.674;23.282;2023-05-10T09:35:07;6.93;;;6.17;;
6392;SDS011;3229;42.674;23.282;2023-05-10T09:37:35;6.23;;;5.70;;
6392;SDS011;3229;42.674;23.282;2023-05-10T09:40:04;5.87;;;5.37;;
6392;SDS011;3229;42.674;23.282;2023-05-10T09:42:33;6.77;;;6.17;;
6392;SDS011;3229;42.674;23.282;2023-05-10T09:45:02;6.70;;;6.00;;
6392;SDS011;3229;42.674;23.282;2023-05-10T09:47:31;6.90;;;6.30;;
6392;SDS011;3229;42.674;23.282;2023-05-10T09:49:59;7.77;;;6.20;;
6392;SDS011;3229;42.674;23.282;2023-05-10T09:52:28;8.60;;;6.20;;
6392;SDS011;3229;42.674;23.282;2023-05-10T09:54:56;7.27;;;6.07;;
6392;SDS011;3229;42.674;23.282;2023-05-10T09:57:23;7.30;;;5.93;;
6392;SDS011;3229;42.674;23.282;2023-05-10T09:59:51;6.27;;;5.70;;
6392;SDS011;3229;42.674;23.282;2023-05-10T10:02:20;9.57;;;5.63;;
6392;SDS011;3229;42.674;23.282;2023-05-10T10:04:54;7.60;;;5.67;;
6392;SDS011;3229;42.674;23.282;2023-05-10T10:07:22;6.07;;;5.57;;
6392;SDS011;3229;42.674;23.282;2023-05-10T10:09:50;6.40;;;5.57;;
6392;SDS011;3229;42.674;23.282;2023-05-10T10:12:18;6.50;;;5.90;;
6392;SDS011;3229;42.674;23.282;2023-05-10T10:14:46;5.83;;;5.27;;
6392;SDS011;3229;42.674;23.282;2023-05-10T10:17:14;7.10;;;5.37;;
6392;SDS011;3229;42.674;23.282;2023-05-10T10:19:43;10.03;;;6.50;;
6392;SDS011;3229;42.674;23.282;2023-05-10T10:22:11;6.60;;;6.00;;
6392;SDS011;3229;42.674;23.282;2023-05-10T10:24:38;8.03;;;5.63;;
6392;SDS011;3229;42.674;23.282;2023-05-10T10:27:14;8.40;;;5.87;;
6392;SDS011;3229;42.674;23.282;2023-05-10T10:29:50;9.87;;;5.87;;
6392;SDS011;3229;42.674;23.282;2023-05-10T10:32:26;5.67;;;5.10;;
6392;SDS011;3229;42.674;23.282;2023-05-10T10:35:01;6.13;;;5.27;;
6392;SDS011;3229;42.674;23.282;2023-05-10T10:40:25;5.87;;;5.30;;
6392;SDS011;3229;42.674;23.282;2023-05-10T10:42:53;5.57;;;5.00;;
6392;SDS011;3229;42.674;23.282;2023-05-10T10:45:20;5.93;;;5.13;;
6392;SDS011;3229;42.674;23.282;2023-05-10T10:47:48;7.03;;;5.27;;
6392;SDS011;3229;42.674;23.282;2023-05-10T10:50:21;6.13;;;5.23;;
6392;SDS011;3229;42.674;23.282;2023-05-10T10:52:47;5.50;;;5.00;;
6392;SDS011;3229;42.674;23.282;2023-05-10T10:55:18;6.10;;;5.53;;
6392;SDS011;3229;42.674;23.282;2023-05-10T10:57:47;5.40;;;4.60;;
6392;SDS011;3229;42.674;23.282;2023-05-10T11:00:21;8.07;;;5.03;;
6392;SDS011;3229;42.674;23.282;2023-05-10T11:02:53;7.43;;;4.83;;
6392;SDS011;3229;42.674;23.282;2023-05-10T11:08:16;6.77;;;4.70;;
6392;SDS011;3229;42.674;23.282;2023-05-10T11:11:01;5.67;;;4.93;;
6392;SDS011;3229;42.674;23.282;2023-05-10T11:13:32;9.80;;;5.37;;
6392;SDS011;3229;42.674;23.282;2023-05-10T11:16:09;8.27;;;5.50;;
6392;SDS011;3229;42.674;23.282;2023-05-10T11:18:37;6.67;;;4.70;;
6392;SDS011;3229;42.674;23.282;2023-05-10T11:21:07;5.40;;;4.90;;
6392;SDS011;3229;42.674;23.282;2023-05-10T11:23:47;5.23;;;4.50;;
6392;SDS011;3229;42.674;23.282;2023-05-10T11:26:15;6.63;;;4.70;;
6392;SDS011;3229;42.674;23.282;2023-05-10T11:28:42;9.27;;;5.50;;
6392;SDS011;3229;42.674;23.282;2023-05-10T11:31:10;6.70;;;4.60;;
6392;SDS011;3229;42.674;23.282;2023-05-10T11:33:42;6.00;;;4.53;;
6392;SDS011;3229;42.674;23.282;2023-05-10T11:36:12;6.97;;;4.50;;
6392;SDS011;3229;42.674;23.282;2023-05-10T11:38:40;6.27;;;4.53;;
6392;SDS011;3229;42.674;23.282;2023-05-10T11:41:07;4.77;;;4.37;;
6392;SDS011;3229;42.674;23.282;2023-05-10T11:43:36;5.30;;;4.60;;
6392;SDS011;3229;42.674;23.282;2023-05-10T11:46:03;5.33;;;4.47;;
6392;SDS011;3229;42.674;23.282;2023-05-10T11:48:31;4.73;;;3.87;;
6392;SDS011;3229;42.674;23.282;2023-05-10T11:50:58;4.20;;;3.80;;
6392;SDS011;3229;42.674;23.282;2023-05-10T11:53:29;6.37;;;4.40;;
6392;SDS011;3229;42.674;23.282;2023-05-10T11:56:02;4.90;;;3.83;;
6392;SDS011;3229;42.674;23.282;2023-05-10T11:58:30;5.00;;;4.50;;
6392;SDS011;3229;42.674;23.282;2023-05-10T12:00:57;7.23;;;5.00;;
6392;SDS011;3229;42.674;23.282;2023-05-10T12:03:24;4.83;;;4.43;;
6392;SDS011;3229;42.674;23.282;2023-05-10T12:05:51;5.40;;;4.33;;
6392;SDS011;3229;42.674;23.282;2023-05-10T12:08:20;4.47;;;4.07;;
6392;SDS011;3229;42.674;23.282;2023-05-10T12:10:49;6.57;;;4.70;;
6392;SDS011;3229;42.674;23.282;2023-05-10T12:13:16;5.50;;;4.53;;
6392;SDS011;3229;42.674;23.282;2023-05-10T12:15:45;5.30;;;4.80;;
6392;SDS011;3229;42.674;23.282;2023-05-10T12:18:12;7.40;;;4.60;;
6392;SDS011;3229;42.674;23.282;2023-05-10T12:20:40;5.87;;;4.70;;
6392;SDS011;3229;42.674;23.282;2023-05-10T12:23:08;5.50;;;4.97;;
6392;SDS011;3229;42.674;23.282;2023-05-10T12:25:36;5.40;;;4.90;;
6392;SDS011;3229;42.674;23.282;2023-05-10T12:28:05;5.17;;;4.67;;
6392;SDS011;3229;42.674;23.282;2023-05-10T12:30:34;7.80;;;5.07;;
6392;SDS011;3229;42.674;23.282;2023-05-10T12:33:06;6.07;;;4.93;;
6392;SDS011;3229;42.674;23.282;2023-05-10T12:35:43;5.37;;;4.80;;
6392;SDS011;3229;42.674;23.282;2023-05-10T12:38:24;5.90;;;4.90;;
6392;SDS011;3229;42.674;23.282;2023-05-10T12:40:54;5.67;;;5.17;;
6392;SDS011;3229;42.674;23.282;2023-05-10T12:43:22;6.60;;;4.60;;
6392;SDS011;3229;42.674;23.282;2023-05-10T12:45:49;6.70;;;5.00;;
6392;SDS011;3229;42.674;23.282;2023-05-10T12:48:16;5.27;;;4.67;;
6392;SDS011;3229;42.674;23.282;2023-05-10T12:50:43;5.97;;;5.47;;
6392;SDS011;3229;42.674;23.282;2023-05-10T12:53:10;7.90;;;5.37;;
6392;SDS011;3229;42.674;23.282;2023-05-10T12:55:38;5.50;;;5.00;;
6392;SDS011;3229;42.674;23.282;2023-05-10T12:58:05;8.40;;;5.20;;
6392;SDS011;3229;42.674;23.282;2023-05-10T13:00:33;5.87;;;5.07;;
6392;SDS011;3229;42.674;23.282;2023-05-10T13:03:00;6.37;;;5.63;;
6392;SDS011;3229;42.674;23.282;2023-05-10T13:05:26;7.50;;;4.97;;
6392;SDS011;3229;42.674;23.282;2023-05-10T13:07:53;5.70;;;5.00;;
6392;SDS011;3229;42.674;23.282;2023-05-10T13:10:20;5.63;;;4.90;;
6392;SDS011;3229;42.674;23.282;2023-05-10T13:12:48;5.97;;;5.47;;
6392;SDS011;3229;42.674;23.282;2023-05-10T13:15:15;6.87;;;5.47;;
6392;SDS011;3229;42.674;23.282;2023-05-10T13:17:43;5.70;;;5.13;;
6392;SDS011;3229;42.674;23.282;2023-05-10T13:20:10;8.93;;;5.60;;
6392;SDS011;3229;42.674;23.282;2023-05-10T13:22:37;6.57;;;5.93;;
6392;SDS011;3229;42.674;23.282;2023-05-10T13:25:04;6.33;;;5.50;;
6392;SDS011;3229;42.674;23.282;2023-05-10T13:27:31;11.37;;;5.60;;
6392;SDS011;3229;42.674;23.282;2023-05-10T13:29:58;6.60;;;5.67;;
6392;SDS011;3229;42.674;23.282;2023-05-10T13:32:25;7.50;;;5.60;;
6392;SDS011;3229;42.674;23.282;2023-05-10T13:34:53;7.33;;;5.23;;
6392;SDS011;3229;42.674;23.282;2023-05-10T13:37:20;5.93;;;5.43;;
6392;SDS011;3229;42.674;23.282;2023-05-10T13:39:47;5.60;;;4.80;;
6392;SDS011;3229;42.674;23.282;2023-05-10T13:42:14;7.17;;;5.10;;
6392;SDS011;3229;42.674;23.282;2023-05-10T13:44:41;6.10;;;5.50;;
6392;SDS011;3229;42.674;23.282;2023-05-10T13:47:08;7.03;;;6.03;;
6392;SDS011;3229;42.674;23.282;2023-05-10T13:49:35;6.30;;;5.53;;
6392;SDS011;3229;42.674;23.282;2023-05-10T13:52:03;5.90;;;5.33;;
6392;SDS011;3229;42.674;23.282;2023-05-10T13:54:31;6.30;;;5.33;;
6392;SDS011;3229;42.674;23.282;2023-05-10T13:56:59;7.97;;;5.57;;
6392;SDS011;3229;42.674;23.282;2023-05-10T13:59:26;8.17;;;5.40;;
6392;SDS011;3229;42.674;23.282;2023-05-10T14:01:53;6.63;;;5.60;;
6392;SDS011;3229;42.674;23.282;2023-05-10T14:04:20;10.73;;;5.17;;
6392;SDS011;3229;42.674;23.282;2023-05-10T14:06:46;6.17;;;5.60;;
6392;SDS011;3229;42.674;23.282;2023-05-10T14:09:15;7.70;;;5.90;;
6392;SDS011;3229;42.674;23.282;2023-05-10T14:11:42;5.53;;;5.03;;
6392;SDS011;3229;42.674;23.282;2023-05-10T14:14:10;4.83;;;4.43;;
6392;SDS011;3229;42.674;23.282;2023-05-10T14:16:36;5.60;;;5.03;;
6392;SDS011;3229;42.674;23.282;2023-05-10T14:19:03;5.47;;;4.93;;
6392;SDS011;3229;42.674;23.282;2023-05-10T14:21:30;5.50;;;5.00;;
6392;SDS011;3229;42.674;23.282;2023-05-10T14:23:57;5.60;;;5.10;;
6392;SDS011;3229;42.674;23.282;2023-05-10T14:26:25;7.27;;;4.77;;
6392;SDS011;3229;42.674;23.282;2023-05-10T14:28:52;4.90;;;4.50;;
6392;SDS011;3229;42.674;23.282;2023-05-10T14:31:19;5.73;;;5.13;;
6392;SDS011;3229;42.674;23.282;2023-05-10T14:33:45;5.90;;;5.17;;
6392;SDS011;3229;42.674;23.282;2023-05-10T14:36:13;7.30;;;5.90;;
6392;SDS011;3229;42.674;23.282;2023-05-10T14:38:40;5.07;;;4.57;;
6392;SDS011;3229;42.674;23.282;2023-05-10T14:41:07;8.27;;;5.60;;
6392;SDS011;3229;42.674;23.282;2023-05-10T14:43:35;6.17;;;5.10;;
6392;SDS011;3229;42.674;23.282;2023-05-10T14:46:02;7.83;;;5.13;;
6392;SDS011;3229;42.674;23.282;2023-05-10T14:48:28;5.67;;;4.70;;
6392;SDS011;3229;42.674;23.282;2023-05-10T14:50:55;6.70;;;5.10;;
6392;SDS011;3229;42.674;23.282;2023-05-10T14:53:22;5.47;;;5.00;;
6392;SDS011;3229;42.674;23.282;2023-05-10T14:55:49;5.67;;;5.17;;
6392;SDS011;3229;42.674;23.282;2023-05-10T14:58:16;5.73;;;5.20;;
6392;SDS011;3229;42.674;23.282;2023-05-10T15:00:44;5.10;;;4.63;;
6392;SDS011;3229;42.674;23.282;2023-05-10T15:03:11;5.70;;;4.97;;
6392;SDS011;3229;42.674;23.282;2023-05-10T15:05:38;5.60;;;4.93;;
6392;SDS011;3229;42.674;23.282;2023-05-10T15:08:05;5.77;;;5.07;;
6392;SDS011;3229;42.674;23.282;2023-05-10T15:10:32;5.17;;;4.67;;
6392;SDS011;3229;42.674;23.282;2023-05-10T15:12:59;5.23;;;4.73;;
6392;SDS011;3229;42.674;23.282;2023-05-10T15:15:26;5.73;;;5.03;;